sensor_id;sensor_type;location;lat;lon;timestamp;P1;durP1;ratioP1;P2;durP2;ratioP2
41139;SDS011;26881;48.784;9.192;2022-12-18T00:02:33;72.03;;;35.07;;
41139;SDS011;26881;48.784;9.192;2022-12-18T00:07:55;67.37;;;35.63;;
41139;SDS011;26881;48.784;9.192;2022-12-18T00:13:17;79.30;;;36.60;;
41139;SDS011;26881;48.784;9.192;2022-12-18T00:18:39;69.50;;;35.30;;
41139;SDS011;26881;48.784;9.192;2022-12-18T00:24:02;70.00;;;35.47;;
41139;SDS011;26881;48.784;9.192;2022-12-18T00:29:24;78.00;;;37.27;;
41139;SDS011;26881;48.784;9.192;2022-12-18T00:34:46;72.07;;;35.50;;
41139;SDS011;26881;48.784;9.192;2022-12-18T00:40:08;68.67;;;36.03;;
41139;SDS011;26881;48.784;9.192;2022-12-18T00:45:30;74.43;;;36.30;;
41139;SDS011;26881;48.784;9.192;2022-12-18T00:50:52;71.73;;;35.53;;
41139;SDS011;26881;48.784;9.192;2022-12-18T00:56:14;65.97;;;34.63;;
41139;SDS011;26881;48.784;9.192;2022-12-18T01:01:36;76.60;;;34.53;;
41139;SDS011;26881;48.784;9.192;2022-12-18T01:06:58;69.10;;;34.47;;
41139;SDS011;26881;48.784;9.192;2022-12-18T01:12:20;68.60;;;35.90;;
41139;SDS011;26881;48.784;9.192;2022-12-18T01:17:42;70.70;;;36.30;;
41139;SDS011;26881;48.784;9.192;2022-12-18T01:23:04;72.40;;;36.03;;
41139;SDS011;26881;48.784;9.192;2022-12-18T01:28:26;72.77;;;35.13;;
41139;SDS011;26881;48.784;9.192;2022-12-18T01:33:48;72.90;;;34.83;;
41139;SDS011;26881;48.784;9.192;2022-12-18T01:39:12;68.33;;;33.57;;
41139;SDS011;26881;48.784;9.192;2022-12-18T01:44:55;73.67;;;34.87;;
41139;SDS011;26881;48.784;9.192;2022-12-18T01:50:19;65.67;;;33.77;;
41139;SDS011;26881;48.784;9.192;2022-12-18T01:55:46;70.20;;;33.20;;
41139;SDS011;26881;48.784;9.192;2022-12-18T02:01:11;66.50;;;31.87;;
41139;SDS011;26881;48.784;9.192;2022-12-18T02:06:34;65.97;;;31.63;;
41139;SDS011;26881;48.784;9.192;2022-12-18T02:12:06;68.73;;;32.97;;
41139;SDS011;26881;48.784;9.192;2022-12-18T02:17:46;59.00;;;30.67;;
41139;SDS011;26881;48.784;9.192;2022-12-18T02:28:56;58.80;;;30.30;;
41139;SDS011;26881;48.784;9.192;2022-12-18T02:34:22;61.43;;;30.23;;
41139;SDS011;26881;48.784;9.192;2022-12-18T02:39:49;55.13;;;29.30;;
41139;SDS011;26881;48.784;9.192;2022-12-18T02:45:14;54.63;;;29.17;;
41139;SDS011;26881;48.784;9.192;2022-12-18T02:50:38;62.67;;;30.13;;
41139;SDS011;26881;48.784;9.192;2022-12-18T02:56:11;59.80;;;30.17;;
41139;SDS011;26881;48.784;9.192;2022-12-18T03:01:46;53.13;;;28.27;;
41139;SDS011;26881;48.784;9.192;2022-12-18T03:07:15;55.27;;;29.13;;
41139;SDS011;26881;48.784;9.192;2022-12-18T03:12:43;60.07;;;29.93;;
41139;SDS011;26881;48.784;9.192;2022-12-18T03:18:11;58.87;;;30.43;;
41139;SDS011;26881;48.784;9.192;2022-12-18T03:23:43;59.43;;;29.60;;
41139;SDS011;26881;48.784;9.192;2022-12-18T03:29:09;55.37;;;29.30;;
41139;SDS011;26881;48.784;9.192;2022-12-18T03:34:38;56.07;;;29.50;;
41139;SDS011;26881;48.784;9.192;2022-12-18T03:40:03;55.20;;;30.37;;
41139;SDS011;26881;48.784;9.192;2022-12-18T03:45:27;63.57;;;29.13;;
41139;SDS011;26881;48.784;9.192;2022-12-18T03:50:56;58.67;;;27.77;;
41139;SDS011;26881;48.784;9.192;2022-12-18T03:56:21;47.30;;;25.00;;
41139;SDS011;26881;48.784;9.192;2022-12-18T04:01:46;44.90;;;23.50;;
41139;SDS011;26881;48.784;9.192;2022-12-18T04:07:10;45.43;;;23.73;;
41139;SDS011;26881;48.784;9.192;2022-12-18T04:12:34;40.87;;;23.07;;
41139;SDS011;26881;48.784;9.192;2022-12-18T04:17:55;39.07;;;22.17;;
41139;SDS011;26881;48.784;9.192;2022-12-18T04:23:17;42.30;;;23.90;;
41139;SDS011;26881;48.784;9.192;2022-12-18T04:28:39;42.97;;;23.27;;
41139;SDS011;26881;48.784;9.192;2022-12-18T04:34:01;42.23;;;24.37;;
41139;SDS011;26881;48.784;9.192;2022-12-18T04:39:24;40.80;;;23.60;;
41139;SDS011;26881;48.784;9.192;2022-12-18T04:44:46;37.57;;;22.40;;
41139;SDS011;26881;48.784;9.192;2022-12-18T04:50:08;42.67;;;23.23;;
41139;SDS011;26881;48.784;9.192;2022-12-18T04:55:30;40.73;;;22.40;;
41139;SDS011;26881;48.784;9.192;2022-12-18T05:00:51;39.60;;;22.37;;
41139;SDS011;26881;48.784;9.192;2022-12-18T05:06:13;41.30;;;22.30;;
41139;SDS011;26881;48.784;9.192;2022-12-18T05:11:35;40.93;;;22.57;;
41139;SDS011;26881;48.784;9.192;2022-12-18T05:16:57;39.37;;;21.57;;
41139;SDS011;26881;48.784;9.192;2022-12-18T05:22:21;44.50;;;21.87;;
41139;SDS011;26881;48.784;9.192;2022-12-18T05:27:43;41.47;;;22.83;;
41139;SDS011;26881;48.784;9.192;2022-12-18T05:33:06;42.87;;;23.23;;
41139;SDS011;26881;48.784;9.192;2022-12-18T05:38:28;41.40;;;23.13;;
41139;SDS011;26881;48.784;9.192;2022-12-18T05:43:51;42.73;;;24.00;;
41139;SDS011;26881;48.784;9.192;2022-12-18T05:49:12;45.27;;;22.87;;
41139;SDS011;26881;48.784;9.192;2022-12-18T05:54:34;43.07;;;21.93;;
41139;SDS011;26881;48.784;9.192;2022-12-18T05:59:56;43.53;;;22.83;;
41139;SDS011;26881;48.784;9.192;2022-12-18T06:05:18;39.37;;;22.07;;
41139;SDS011;26881;48.784;9.192;2022-12-18T06:10:40;40.33;;;21.80;;
41139;SDS011;26881;48.784;9.192;2022-12-18T06:16:06;41.60;;;22.90;;
41139;SDS011;26881;48.784;9.192;2022-12-18T06:21:28;43.10;;;23.00;;
41139;SDS011;26881;48.784;9.192;2022-12-18T06:26:52;42.37;;;22.97;;
41139;SDS011;26881;48.784;9.192;2022-12-18T06:32:14;43.80;;;23.30;;
41139;SDS011;26881;48.784;9.192;2022-12-18T06:37:35;44.93;;;22.37;;
41139;SDS011;26881;48.784;9.192;2022-12-18T06:42:57;44.27;;;23.27;;
41139;SDS011;26881;48.784;9.192;2022-12-18T06:48:19;42.27;;;22.60;;
41139;SDS011;26881;48.784;9.192;2022-12-18T06:53:41;40.40;;;22.30;;
41139;SDS011;26881;48.784;9.192;2022-12-18T06:59:03;48.37;;;22.87;;
41139;SDS011;26881;48.784;9.192;2022-12-18T07:04:29;43.77;;;23.43;;
41139;SDS011;26881;48.784;9.192;2022-12-18T07:09:51;42.63;;;22.83;;
41139;SDS011;26881;48.784;9.192;2022-12-18T07:15:13;43.27;;;21.37;;
41139;SDS011;26881;48.784;9.192;2022-12-18T07:20:35;42.43;;;21.50;;
41139;SDS011;26881;48.784;9.192;2022-12-18T07:26:08;46.90;;;23.00;;
41139;SDS011;26881;48.784;9.192;2022-12-18T07:31:32;43.47;;;22.53;;
41139;SDS011;26881;48.784;9.192;2022-12-18T07:36:54;38.90;;;20.97;;
41139;SDS011;26881;48.784;9.192;2022-12-18T07:42:16;49.37;;;22.93;;
41139;SDS011;26881;48.784;9.192;2022-12-18T07:47:53;46.83;;;21.93;;
41139;SDS011;26881;48.784;9.192;2022-12-18T07:53:15;49.63;;;23.70;;
41139;SDS011;26881;48.784;9.192;2022-12-18T07:58:36;51.40;;;24.80;;
41139;SDS011;26881;48.784;9.192;2022-12-18T08:03:59;47.43;;;24.37;;
41139;SDS011;26881;48.784;9.192;2022-12-18T08:09:20;48.17;;;24.13;;
41139;SDS011;26881;48.784;9.192;2022-12-18T08:14:42;47.97;;;24.17;;
41139;SDS011;26881;48.784;9.192;2022-12-18T08:20:04;47.07;;;24.63;;
41139;SDS011;26881;48.784;9.192;2022-12-18T08:25:27;45.53;;;24.37;;
41139;SDS011;26881;48.784;9.192;2022-12-18T08:30:51;40.77;;;22.40;;
41139;SDS011;26881;48.784;9.192;2022-12-18T08:36:13;52.47;;;25.60;;
41139;SDS011;26881;48.784;9.192;2022-12-18T08:41:35;50.27;;;25.50;;
41139;SDS011;26881;48.784;9.192;2022-12-18T08:46:57;50.23;;;25.67;;
41139;SDS011;26881;48.784;9.192;2022-12-18T08:52:19;53.70;;;25.23;;
41139;SDS011;26881;48.784;9.192;2022-12-18T08:57:40;52.70;;;26.70;;
41139;SDS011;26881;48.784;9.192;2022-12-18T09:03:02;57.37;;;25.90;;
41139;SDS011;26881;48.784;9.192;2022-12-18T09:08:24;54.97;;;27.87;;
41139;SDS011;26881;48.784;9.192;2022-12-18T09:13:46;54.40;;;26.73;;
41139;SDS011;26881;48.784;9.192;2022-12-18T09:19:08;54.10;;;28.17;;
41139;SDS011;26881;48.784;9.192;2022-12-18T09:24:31;54.27;;;27.17;;
41139;SDS011;26881;48.784;9.192;2022-12-18T09:29:52;48.40;;;26.87;;
41139;SDS011;26881;48.784;9.192;2022-12-18T09:35:14;50.90;;;26.30;;
41139;SDS011;26881;48.784;9.192;2022-12-18T09:40:39;52.93;;;26.33;;
41139;SDS011;26881;48.784;9.192;2022-12-18T09:46:07;47.57;;;28.10;;
41139;SDS011;26881;48.784;9.192;2022-12-18T09:51:35;51.87;;;26.87;;
41139;SDS011;26881;48.784;9.192;2022-12-18T09:57:06;47.30;;;25.93;;
41139;SDS011;26881;48.784;9.192;2022-12-18T10:02:29;51.73;;;26.97;;
41139;SDS011;26881;48.784;9.192;2022-12-18T10:07:59;48.07;;;26.50;;
41139;SDS011;26881;48.784;9.192;2022-12-18T10:13:41;55.07;;;28.53;;
41139;SDS011;26881;48.784;9.192;2022-12-18T10:24:57;49.33;;;27.53;;
41139;SDS011;26881;48.784;9.192;2022-12-18T10:30:27;50.77;;;27.90;;
41139;SDS011;26881;48.784;9.192;2022-12-18T10:35:52;55.00;;;27.70;;
41139;SDS011;26881;48.784;9.192;2022-12-18T10:46:38;58.47;;;30.03;;
41139;SDS011;26881;48.784;9.192;2022-12-18T10:57:42;56.30;;;29.13;;
41139;SDS011;26881;48.784;9.192;2022-12-18T11:03:07;51.83;;;29.87;;
41139;SDS011;26881;48.784;9.192;2022-12-18T11:09:01;55.00;;;29.10;;
41139;SDS011;26881;48.784;9.192;2022-12-18T11:14:45;55.77;;;29.33;;
41139;SDS011;26881;48.784;9.192;2022-12-18T11:20:30;58.57;;;29.70;;
41139;SDS011;26881;48.784;9.192;2022-12-18T11:25:58;59.03;;;29.87;;
41139;SDS011;26881;48.784;9.192;2022-12-18T11:31:24;48.20;;;26.77;;
41139;SDS011;26881;48.784;9.192;2022-12-18T11:36:49;51.10;;;25.40;;
41139;SDS011;26881;48.784;9.192;2022-12-18T11:43:13;45.90;;;25.37;;
41139;SDS011;26881;48.784;9.192;2022-12-18T11:53:44;45.50;;;23.90;;
41139;SDS011;26881;48.784;9.192;2022-12-18T12:04:56;42.87;;;21.97;;
41139;SDS011;26881;48.784;9.192;2022-12-18T12:10:32;44.63;;;23.37;;
41139;SDS011;26881;48.784;9.192;2022-12-18T12:21:46;46.33;;;23.23;;
41139;SDS011;26881;48.784;9.192;2022-12-18T12:27:27;41.37;;;23.83;;
41139;SDS011;26881;48.784;9.192;2022-12-18T12:38:47;44.73;;;23.43;;
41139;SDS011;26881;48.784;9.192;2022-12-18T12:44:14;44.83;;;23.40;;
41139;SDS011;26881;48.784;9.192;2022-12-18T12:49:41;41.77;;;23.30;;
41139;SDS011;26881;48.784;9.192;2022-12-18T12:55:17;44.20;;;23.37;;
41139;SDS011;26881;48.784;9.192;2022-12-18T13:00:46;45.03;;;24.53;;
41139;SDS011;26881;48.784;9.192;2022-12-18T13:11:54;44.53;;;24.30;;
41139;SDS011;26881;48.784;9.192;2022-12-18T13:17:42;42.53;;;23.27;;
41139;SDS011;26881;48.784;9.192;2022-12-18T13:34:16;46.27;;;24.07;;
41139;SDS011;26881;48.784;9.192;2022-12-18T13:39:58;53.57;;;24.07;;
41139;SDS011;26881;48.784;9.192;2022-12-18T13:45:36;45.27;;;24.27;;
41139;SDS011;26881;48.784;9.192;2022-12-18T13:51:10;58.47;;;26.53;;
41139;SDS011;26881;48.784;9.192;2022-12-18T13:56:42;52.10;;;27.50;;
41139;SDS011;26881;48.784;9.192;2022-12-18T14:02:11;51.63;;;27.87;;
41139;SDS011;26881;48.784;9.192;2022-12-18T14:07:36;53.97;;;27.13;;
41139;SDS011;26881;48.784;9.192;2022-12-18T14:13:09;52.80;;;26.70;;
41139;SDS011;26881;48.784;9.192;2022-12-18T14:18:55;57.83;;;28.63;;
41139;SDS011;26881;48.784;9.192;2022-12-18T14:24:35;52.10;;;26.13;;
41139;SDS011;26881;48.784;9.192;2022-12-18T14:29:57;56.67;;;29.57;;
41139;SDS011;26881;48.784;9.192;2022-12-18T14:35:19;54.33;;;29.27;;
41139;SDS011;26881;48.784;9.192;2022-12-18T14:40:41;54.10;;;29.33;;
41139;SDS011;26881;48.784;9.192;2022-12-18T14:46:04;53.80;;;29.47;;
41139;SDS011;26881;48.784;9.192;2022-12-18T14:51:41;57.07;;;29.83;;
41139;SDS011;26881;48.784;9.192;2022-12-18T15:02:46;50.27;;;28.27;;
41139;SDS011;26881;48.784;9.192;2022-12-18T15:08:30;51.33;;;28.10;;
41139;SDS011;26881;48.784;9.192;2022-12-18T15:19:52;58.47;;;30.37;;
41139;SDS011;26881;48.784;9.192;2022-12-18T15:25:26;54.87;;;27.90;;
41139;SDS011;26881;48.784;9.192;2022-12-18T15:31:38;57.57;;;29.67;;
41139;SDS011;26881;48.784;9.192;2022-12-18T15:36:46;53.00;;;28.00;;
41139;SDS011;26881;48.784;9.192;2022-12-18T15:42:09;53.77;;;29.30;;
41139;SDS011;26881;48.784;9.192;2022-12-18T15:47:50;56.57;;;29.80;;
41139;SDS011;26881;48.784;9.192;2022-12-18T15:53:12;58.10;;;29.53;;
41139;SDS011;26881;48.784;9.192;2022-12-18T15:58:33;59.27;;;29.90;;
41139;SDS011;26881;48.784;9.192;2022-12-18T16:03:55;64.50;;;30.23;;
41139;SDS011;26881;48.784;9.192;2022-12-18T16:09:17;57.43;;;29.13;;
41139;SDS011;26881;48.784;9.192;2022-12-18T16:14:46;58.43;;;30.03;;
41139;SDS011;26881;48.784;9.192;2022-12-18T16:20:13;61.40;;;30.03;;
41139;SDS011;26881;48.784;9.192;2022-12-18T16:25:36;66.07;;;32.93;;
41139;SDS011;26881;48.784;9.192;2022-12-18T16:30:58;65.73;;;31.80;;
41139;SDS011;26881;48.784;9.192;2022-12-18T16:36:20;55.17;;;30.47;;
41139;SDS011;26881;48.784;9.192;2022-12-18T16:41:42;56.83;;;30.50;;
41139;SDS011;26881;48.784;9.192;2022-12-18T16:47:04;58.37;;;29.73;;
41139;SDS011;26881;48.784;9.192;2022-12-18T16:52:28;53.10;;;29.50;;
41139;SDS011;26881;48.784;9.192;2022-12-18T16:57:50;54.03;;;29.37;;
41139;SDS011;26881;48.784;9.192;2022-12-18T17:03:12;50.97;;;28.27;;
41139;SDS011;26881;48.784;9.192;2022-12-18T17:08:34;66.53;;;32.10;;
41139;SDS011;26881;48.784;9.192;2022-12-18T17:13:56;56.50;;;30.73;;
41139;SDS011;26881;48.784;9.192;2022-12-18T17:19:19;56.03;;;30.77;;
41139;SDS011;26881;48.784;9.192;2022-12-18T17:24:42;56.63;;;29.47;;
41139;SDS011;26881;48.784;9.192;2022-12-18T17:30:04;61.47;;;31.03;;
41139;SDS011;26881;48.784;9.192;2022-12-18T17:35:26;56.00;;;31.00;;
41139;SDS011;26881;48.784;9.192;2022-12-18T17:40:48;59.53;;;31.03;;
41139;SDS011;26881;48.784;9.192;2022-12-18T17:46:12;55.13;;;30.27;;
41139;SDS011;26881;48.784;9.192;2022-12-18T17:51:35;55.57;;;30.40;;
41139;SDS011;26881;48.784;9.192;2022-12-18T17:56:57;54.70;;;28.67;;
41139;SDS011;26881;48.784;9.192;2022-12-18T18:02:18;51.47;;;27.60;;
41139;SDS011;26881;48.784;9.192;2022-12-18T18:07:41;51.60;;;29.23;;
41139;SDS011;26881;48.784;9.192;2022-12-18T18:13:04;52.77;;;28.57;;
41139;SDS011;26881;48.784;9.192;2022-12-18T18:18:45;51.73;;;28.63;;
41139;SDS011;26881;48.784;9.192;2022-12-18T18:24:07;51.67;;;28.73;;
41139;SDS011;26881;48.784;9.192;2022-12-18T18:29:29;54.73;;;29.03;;
41139;SDS011;26881;48.784;9.192;2022-12-18T18:34:51;49.37;;;27.00;;
41139;SDS011;26881;48.784;9.192;2022-12-18T18:40:13;53.50;;;26.63;;
41139;SDS011;26881;48.784;9.192;2022-12-18T18:45:35;53.33;;;29.20;;
41139;SDS011;26881;48.784;9.192;2022-12-18T18:56:20;48.20;;;25.37;;
41139;SDS011;26881;48.784;9.192;2022-12-18T19:02:03;47.13;;;25.87;;
41139;SDS011;26881;48.784;9.192;2022-12-18T19:07:25;49.47;;;24.97;;
41139;SDS011;26881;48.784;9.192;2022-12-18T19:12:51;46.03;;;25.07;;
41139;SDS011;26881;48.784;9.192;2022-12-18T19:18:32;47.70;;;26.97;;
41139;SDS011;26881;48.784;9.192;2022-12-18T19:23:54;54.87;;;27.10;;
41139;SDS011;26881;48.784;9.192;2022-12-18T19:29:16;52.87;;;26.33;;
41139;SDS011;26881;48.784;9.192;2022-12-18T19:34:38;55.63;;;27.37;;
41139;SDS011;26881;48.784;9.192;2022-12-18T19:40:00;54.07;;;26.27;;
41139;SDS011;26881;48.784;9.192;2022-12-18T19:45:29;48.70;;;27.03;;
41139;SDS011;26881;48.784;9.192;2022-12-18T19:50:51;57.70;;;28.90;;
41139;SDS011;26881;48.784;9.192;2022-12-18T19:56:14;52.50;;;27.57;;
41139;SDS011;26881;48.784;9.192;2022-12-18T20:01:38;49.43;;;26.90;;
41139;SDS011;26881;48.784;9.192;2022-12-18T20:07:01;52.50;;;28.20;;
41139;SDS011;26881;48.784;9.192;2022-12-18T20:12:23;55.27;;;27.90;;
41139;SDS011;26881;48.784;9.192;2022-12-18T20:17:44;59.73;;;29.37;;
41139;SDS011;26881;48.784;9.192;2022-12-18T20:23:06;54.50;;;27.80;;
41139;SDS011;26881;48.784;9.192;2022-12-18T20:28:28;51.10;;;28.17;;
41139;SDS011;26881;48.784;9.192;2022-12-18T20:33:51;51.70;;;26.80;;
41139;SDS011;26881;48.784;9.192;2022-12-18T20:39:18;48.90;;;27.00;;
41139;SDS011;26881;48.784;9.192;2022-12-18T20:44:40;48.17;;;27.00;;
41139;SDS011;26881;48.784;9.192;2022-12-18T20:50:02;48.63;;;26.50;;
41139;SDS011;26881;48.784;9.192;2022-12-18T20:55:24;50.73;;;26.67;;
41139;SDS011;26881;48.784;9.192;2022-12-18T21:00:46;52.10;;;26.10;;
41139;SDS011;26881;48.784;9.192;2022-12-18T21:06:08;57.60;;;26.97;;
41139;SDS011;26881;48.784;9.192;2022-12-18T21:11:31;51.37;;;27.70;;
41139;SDS011;26881;48.784;9.192;2022-12-18T21:17:12;56.20;;;30.67;;
41139;SDS011;26881;48.784;9.192;2022-12-18T21:22:34;55.40;;;29.57;;
41139;SDS011;26881;48.784;9.192;2022-12-18T21:27:57;52.73;;;27.77;;
41139;SDS011;26881;48.784;9.192;2022-12-18T21:33:18;53.13;;;27.47;;
41139;SDS011;26881;48.784;9.192;2022-12-18T21:38:40;60.93;;;29.77;;
41139;SDS011;26881;48.784;9.192;2022-12-18T21:44:02;51.00;;;28.70;;
41139;SDS011;26881;48.784;9.192;2022-12-18T21:49:27;55.73;;;28.63;;
41139;SDS011;26881;48.784;9.192;2022-12-18T21:54:49;55.40;;;29.40;;
41139;SDS011;26881;48.784;9.192;2022-12-18T22:00:11;53.23;;;28.20;;
41139;SDS011;26881;48.784;9.192;2022-12-18T22:05:40;55.50;;;29.57;;
41139;SDS011;26881;48.784;9.192;2022-12-18T22:11:02;57.60;;;28.43;;
41139;SDS011;26881;48.784;9.192;2022-12-18T22:16:23;48.93;;;27.50;;
41139;SDS011;26881;48.784;9.192;2022-12-18T22:21:46;55.93;;;28.20;;
41139;SDS011;26881;48.784;9.192;2022-12-18T22:27:09;57.50;;;27.87;;
41139;SDS011;26881;48.784;9.192;2022-12-18T22:32:31;50.73;;;28.17;;
41139;SDS011;26881;48.784;9.192;2022-12-18T22:37:56;52.30;;;29.13;;
41139;SDS011;26881;48.784;9.192;2022-12-18T22:43:19;54.10;;;29.20;;
41139;SDS011;26881;48.784;9.192;2022-12-18T22:48:41;58.40;;;29.37;;
41139;SDS011;26881;48.784;9.192;2022-12-18T22:54:03;59.60;;;29.50;;
41139;SDS011;26881;48.784;9.192;2022-12-18T22:59:25;54.30;;;28.87;;
41139;SDS011;26881;48.784;9.192;2022-12-18T23:04:47;56.27;;;30.30;;
41139;SDS011;26881;48.784;9.192;2022-12-18T23:10:09;52.93;;;28.23;;
41139;SDS011;26881;48.784;9.192;2022-12-18T23:15:31;55.73;;;29.30;;
41139;SDS011;26881;48.784;9.192;2022-12-18T23:20:52;54.80;;;28.07;;
41139;SDS011;26881;48.784;9.192;2022-12-18T23:26:16;53.80;;;29.27;;
41139;SDS011;26881;48.784;9.192;2022-12-18T23:31:39;54.57;;;29.80;;
41139;SDS011;26881;48.784;9.192;2022-12-18T23:37:01;50.43;;;28.07;;
41139;SDS011;26881;48.784;9.192;2022-12-18T23:42:24;56.57;;;28.47;;
41139;SDS011;26881;48.784;9.192;2022-12-18T23:47:47;50.67;;;27.80;;
41139;SDS011;26881;48.784;9.192;2022-12-18T23:53:12;52.27;;;29.53;;
41139;SDS011;26881;48.784;9.192;2022-12-18T23:58:34;51.67;;;27.30;;
